createdAt,value
2022-10-23T00:02:03.394Z,61.50
2022-10-23T00:04:32.053Z,61.50
2022-10-23T00:07:01.922Z,61.50
2022-10-23T00:09:30.444Z,61.50
2022-10-23T00:11:59.004Z,61.50
2022-10-23T00:14:27.540Z,61.40
2022-10-23T00:16:56.084Z,61.60
2022-10-23T00:19:25.127Z,61.50
2022-10-23T00:21:53.788Z,61.60
2022-10-23T00:24:23.707Z,61.50
2022-10-23T00:26:52.491Z,61.60
2022-10-23T00:29:21.896Z,61.60
2022-10-23T00:31:50.381Z,61.50
2022-10-23T00:34:19.900Z,61.40
2022-10-23T00:36:48.483Z,61.50
2022-10-23T00:39:17.001Z,61.40
2022-10-23T00:41:46.919Z,61.40
2022-10-23T00:45:09.350Z,61.40
2022-10-23T00:47:38.029Z,61.50
2022-10-23T00:50:07.682Z,61.30
2022-10-23T00:52:44.088Z,61.30
2022-10-23T00:55:53.231Z,61.30
2022-10-23T00:58:23.308Z,61.40
2022-10-23T01:00:54.471Z,61.30
2022-10-23T01:03:26.925Z,61.40
2022-10-23T01:06:04.831Z,61.40
2022-10-23T01:08:42.084Z,61.40
2022-10-23T01:11:18.159Z,61.40
2022-10-23T01:13:58.802Z,61.50
2022-10-23T01:16:37.703Z,61.50
2022-10-23T01:19:22.180Z,61.50
2022-10-23T01:21:57.262Z,61.40
2022-10-23T01:24:44.579Z,61.40
2022-10-23T01:27:22.340Z,61.40
2022-10-23T01:30:00.446Z,61.50
2022-10-23T01:32:47.316Z,61.50
2022-10-23T01:35:22.473Z,61.50
2022-10-23T01:38:11.704Z,61.50
2022-10-23T01:40:50.321Z,61.50
2022-10-23T01:43:27.986Z,61.50
2022-10-23T01:46:02.972Z,61.50
2022-10-23T01:48:33.445Z,61.40
2022-10-23T01:51:06.592Z,62.10
2022-10-23T01:53:41.408Z,61.30
2022-10-23T01:56:16.663Z,61.40
2022-10-23T01:58:50.773Z,61.40
2022-10-23T02:01:23.681Z,61.40
2022-10-23T02:03:55.434Z,61.50
2022-10-23T02:06:24.365Z,61.60
2022-10-23T02:08:53.350Z,61.60
2022-10-23T02:11:23.183Z,61.60
2022-10-23T02:14:03.570Z,61.70
2022-10-23T02:16:38.729Z,61.70
2022-10-23T02:19:17.144Z,61.70
2022-10-23T02:21:54.640Z,61.70
2022-10-23T02:24:34.679Z,61.70
2022-10-23T02:27:10.133Z,61.60
2022-10-23T02:29:44.947Z,61.50
2022-10-23T02:32:16.628Z,61.60
2022-10-23T02:34:45.348Z,61.60
2022-10-23T02:37:14.014Z,61.60
2022-10-23T02:39:42.879Z,61.50
2022-10-23T02:42:22.180Z,61.60
2022-10-23T02:45:04.183Z,61.60
2022-10-23T02:47:48.305Z,61.70
2022-10-23T02:50:27.447Z,61.70
2022-10-23T02:53:07.571Z,61.70
2022-10-23T02:55:48.087Z,61.70
2022-10-23T02:58:23.914Z,61.70
2022-10-23T03:01:07.495Z,61.70
2022-10-23T03:03:42.064Z,61.70
2022-10-23T03:06:11.054Z,61.70
2022-10-23T03:08:44.328Z,61.70
2022-10-23T03:11:13.036Z,61.80
2022-10-23T03:13:41.566Z,61.70
2022-10-23T03:16:11.633Z,61.70
2022-10-23T03:18:40.312Z,61.70
2022-10-23T03:21:09.201Z,61.70
2022-10-23T03:23:37.733Z,61.60
2022-10-23T03:26:06.676Z,61.60
2022-10-23T03:28:40.694Z,61.60
2022-10-23T03:31:10.709Z,61.60
2022-10-23T03:33:40.861Z,61.60
2022-10-23T03:36:12.200Z,61.60
2022-10-23T03:38:41.960Z,61.70
2022-10-23T03:41:12.364Z,61.80
2022-10-23T03:43:40.966Z,61.80
2022-10-23T03:46:12.941Z,61.80
2022-10-23T03:48:42.167Z,61.90
2022-10-23T03:51:10.954Z,61.90
2022-10-23T03:53:42.491Z,61.90
2022-10-23T03:56:11.189Z,62.00
2022-10-23T03:58:41.165Z,61.90
2022-10-23T04:01:11.483Z,62.00
2022-10-23T04:03:40.186Z,62.00
2022-10-23T04:06:09.260Z,62.00
2022-10-23T04:08:37.902Z,62.00
2022-10-23T04:11:13.503Z,62.10
2022-10-23T04:13:46.967Z,61.90
2022-10-23T04:16:16.907Z,61.90
2022-10-23T04:18:46.824Z,61.90
2022-10-23T04:21:15.442Z,62.00
2022-10-23T04:23:44.201Z,61.90
2022-10-23T04:26:21.541Z,61.90
2022-10-23T04:28:50.730Z,61.90
2022-10-23T04:31:20.726Z,61.90
2022-10-23T04:33:49.338Z,61.90
2022-10-23T04:36:30.827Z,61.90
2022-10-23T04:39:05.193Z,62.00
2022-10-23T04:41:33.788Z,61.90
2022-10-23T04:44:02.437Z,61.90
2022-10-23T04:46:32.466Z,62.00
2022-10-23T04:49:01.088Z,62.00
2022-10-23T04:51:47.763Z,62.00
2022-10-23T04:54:39.590Z,62.00
2022-10-23T04:57:26.825Z,62.10
2022-10-23T05:00:00.322Z,62.00
2022-10-23T05:02:30.333Z,62.00
2022-10-23T05:04:58.889Z,62.00
2022-10-23T05:07:46.219Z,62.00
2022-10-23T05:10:29.540Z,62.00
2022-10-23T05:13:07.129Z,62.00
2022-10-23T05:15:35.778Z,62.00
2022-10-23T05:18:15.008Z,61.90
2022-10-23T05:20:47.148Z,62.00
2022-10-23T05:23:19.508Z,62.00
2022-10-23T05:25:56.617Z,62.00
2022-10-23T05:28:25.159Z,62.00
2022-10-23T05:30:53.834Z,62.00
2022-10-23T05:33:28.679Z,61.90
2022-10-23T05:35:58.267Z,62.00
2022-10-23T05:38:29.439Z,62.00
2022-10-23T05:40:58.265Z,62.00
2022-10-23T05:43:27.423Z,62.00
2022-10-23T05:46:19.256Z,62.00
2022-10-23T05:51:51.523Z,62.10
2022-10-23T05:54:52.865Z,62.20
2022-10-23T05:57:47.615Z,62.20
2022-10-23T06:00:20.061Z,62.20
2022-10-23T06:03:00.041Z,62.30
2022-10-23T06:05:44.867Z,62.40
2022-10-23T06:08:36.616Z,62.40
2022-10-23T06:11:10.784Z,62.50
2022-10-23T06:13:40.190Z,62.60
2022-10-23T06:16:13.164Z,62.60
2022-10-23T06:18:43.059Z,62.70
2022-10-23T06:21:17.868Z,62.70
2022-10-23T06:23:49.591Z,62.70
2022-10-23T06:26:56.252Z,62.70
2022-10-23T06:29:36.577Z,62.80
2022-10-23T06:32:05.557Z,62.60
2022-10-23T06:34:34.299Z,62.60
2022-10-23T06:37:04.185Z,62.60
2022-10-23T06:39:52.999Z,62.60
2022-10-23T06:42:34.209Z,62.60
2022-10-23T06:45:30.065Z,62.60
2022-10-23T06:48:24.183Z,62.70
2022-10-23T06:51:08.664Z,62.80
2022-10-23T06:53:45.163Z,62.80
2022-10-23T06:56:42.911Z,62.90
2022-10-23T06:59:12.333Z,62.80
2022-10-23T07:01:41.315Z,62.90
2022-10-23T07:04:13.670Z,63.00
2022-10-23T07:06:43.583Z,63.80
2022-10-23T07:09:13.883Z,63.20
2022-10-23T07:12:08.464Z,63.20
2022-10-23T07:14:46.726Z,63.20
2022-10-23T07:17:17.603Z,63.30
2022-10-23T07:19:47.504Z,63.40
2022-10-23T07:22:17.432Z,63.40
2022-10-23T07:24:51.390Z,63.50
2022-10-23T07:28:07.941Z,63.60
2022-10-23T07:30:37.513Z,63.60
2022-10-23T07:33:06.157Z,63.70
2022-10-23T07:35:56.375Z,63.80
2022-10-23T07:38:29.120Z,63.90
2022-10-23T07:41:00.560Z,64.00
2022-10-23T07:43:29.360Z,64.10
2022-10-23T07:45:58.091Z,64.20
2022-10-23T07:48:35.253Z,64.20
2022-10-23T07:51:10.698Z,64.30
2022-10-23T07:53:52.884Z,64.40
2022-10-23T07:56:37.603Z,64.50
2022-10-23T07:59:18.496Z,64.70
2022-10-23T08:01:55.698Z,64.80
2022-10-23T08:04:29.383Z,64.90
2022-10-23T08:07:07.025Z,65.00
2022-10-23T08:09:41.210Z,65.00
2022-10-23T08:12:12.110Z,65.10
2022-10-23T08:14:40.988Z,65.20
2022-10-23T08:17:11.395Z,65.90
2022-10-23T08:19:58.439Z,65.10
2022-10-23T08:22:31.693Z,65.20
2022-10-23T08:25:00.284Z,65.20
2022-10-23T08:27:30.252Z,65.10
2022-10-23T08:29:58.861Z,65.20
2022-10-23T08:32:30.885Z,65.20
2022-10-23T08:35:01.218Z,65.30
2022-10-23T08:37:32.540Z,65.20
2022-10-23T08:40:01.230Z,65.30
2022-10-23T08:42:55.834Z,65.30
2022-10-23T08:45:32.692Z,65.40
2022-10-23T08:48:19.112Z,65.70
2022-10-23T08:51:31.047Z,65.70
2022-10-23T08:54:07.806Z,65.70
2022-10-23T08:56:39.536Z,65.70
2022-10-23T08:59:20.637Z,65.70
2022-10-23T09:01:53.830Z,65.90
2022-10-23T09:04:22.463Z,65.80
2022-10-23T09:07:00.561Z,65.70
2022-10-23T09:09:46.995Z,65.90
2022-10-23T09:12:18.127Z,66.00
2022-10-23T09:15:12.263Z,65.90
2022-10-23T09:17:43.957Z,66.20
2022-10-23T09:20:21.243Z,66.00
2022-10-23T09:22:54.086Z,66.10
2022-10-23T09:25:27.091Z,65.90
2022-10-23T09:28:00.077Z,66.00
2022-10-23T09:30:35.457Z,65.90
2022-10-23T09:33:16.201Z,66.00
2022-10-23T09:35:59.409Z,66.30
2022-10-23T09:38:32.559Z,66.20
2022-10-23T09:41:06.125Z,66.10
2022-10-23T09:43:35.161Z,66.10
2022-10-23T09:46:09.370Z,66.10
2022-10-23T09:48:42.383Z,66.20
2022-10-23T09:51:22.459Z,66.20
2022-10-23T09:53:54.730Z,66.30
2022-10-23T09:56:29.116Z,66.00
2022-10-23T09:59:00.919Z,66.10
2022-10-23T10:01:33.920Z,65.90
2022-10-23T10:04:37.666Z,65.90
2022-10-23T10:07:15.363Z,65.90
2022-10-23T10:09:44.411Z,65.80
2022-10-23T10:12:32.392Z,65.80
2022-10-23T10:15:12.677Z,66.10
2022-10-23T10:17:51.516Z,65.90
2022-10-23T10:20:47.262Z,66.00
2022-10-23T10:23:26.553Z,66.10
2022-10-23T10:26:04.897Z,65.90
2022-10-23T10:29:08.307Z,65.80
2022-10-23T10:31:53.409Z,65.60
2022-10-23T10:34:31.115Z,65.30
2022-10-23T10:37:07.285Z,65.10
2022-10-23T10:43:03.439Z,64.60
2022-10-23T10:45:35.663Z,64.50
2022-10-23T10:48:21.743Z,64.20
2022-10-23T10:51:21.132Z,63.90
2022-10-23T10:54:07.533Z,63.50
2022-10-23T10:56:43.332Z,63.10
2022-10-23T10:59:21.931Z,62.80
2022-10-23T11:01:58.258Z,62.60
2022-10-23T11:04:35.541Z,62.20
2022-10-23T11:07:33.824Z,61.60
2022-10-23T11:10:17.482Z,61.20
2022-10-23T11:13:05.600Z,61.10
2022-10-23T11:15:42.125Z,61.00
2022-10-23T11:18:19.504Z,60.50
2022-10-23T11:21:08.289Z,60.10
2022-10-23T11:24:01.609Z,59.90
2022-10-23T11:26:43.025Z,59.70
2022-10-23T11:29:37.051Z,59.60
2022-10-23T11:35:38.048Z,59.50
2022-10-23T11:38:18.205Z,59.40
2022-10-23T11:40:52.192Z,59.50
2022-10-23T11:43:29.687Z,59.40
2022-10-23T11:45:59.122Z,59.30
2022-10-23T11:48:38.968Z,59.20
2022-10-23T11:51:28.176Z,58.60
2022-10-23T11:54:08.943Z,59.00
2022-10-23T11:56:40.523Z,58.60
2022-10-23T11:59:26.928Z,58.80
2022-10-23T12:01:58.426Z,58.20
2022-10-23T12:04:33.404Z,58.70
2022-10-23T12:07:05.417Z,58.50
2022-10-23T12:09:42.115Z,58.40
2022-10-23T12:12:30.224Z,58.20
2022-10-23T12:15:22.292Z,58.00
2022-10-23T12:17:54.210Z,57.90
2022-10-23T12:20:42.060Z,58.30
2022-10-23T12:23:47.362Z,58.00
2022-10-23T12:26:43.777Z,57.70
2022-10-23T12:29:29.701Z,57.80
2022-10-23T12:32:14.093Z,57.70
2022-10-23T12:34:54.636Z,57.80
2022-10-23T12:37:46.870Z,57.60
2022-10-23T12:40:15.642Z,57.30
2022-10-23T12:42:55.095Z,57.80
2022-10-23T12:45:28.790Z,57.30
2022-10-23T12:47:57.663Z,57.40
2022-10-23T12:50:29.061Z,57.40
2022-10-23T12:53:01.772Z,57.30
2022-10-23T12:55:36.183Z,57.20
2022-10-23T12:58:05.142Z,57.00
2022-10-23T13:00:35.273Z,57.00
2022-10-23T13:03:05.883Z,56.90
2022-10-23T13:05:34.657Z,56.80
2022-10-23T13:08:05.133Z,56.80
2022-10-23T13:10:45.275Z,56.40
2022-10-23T13:13:16.988Z,56.50
2022-10-23T13:15:47.394Z,56.30
2022-10-23T13:18:17.307Z,56.10
2022-10-23T13:20:58.829Z,56.10
2022-10-23T13:23:33.577Z,55.60
2022-10-23T13:26:05.758Z,56.00
2022-10-23T13:28:36.228Z,56.20
2022-10-23T13:31:25.671Z,56.20
2022-10-23T13:34:18.817Z,56.10
2022-10-23T13:37:03.176Z,55.80
2022-10-23T13:39:34.881Z,55.80
2022-10-23T13:42:13.842Z,56.20
2022-10-23T13:44:43.089Z,55.90
2022-10-23T13:47:15.751Z,56.20
2022-10-23T13:49:44.297Z,55.90
2022-10-23T13:52:17.650Z,56.10
2022-10-23T13:54:46.204Z,55.90
2022-10-23T13:57:16.758Z,55.90
2022-10-23T13:59:45.462Z,55.90
2022-10-23T14:02:23.491Z,55.90
2022-10-23T14:04:52.676Z,55.70
2022-10-23T14:07:21.322Z,55.90
2022-10-23T14:09:50.637Z,55.80
2022-10-23T14:12:19.522Z,55.90
2022-10-23T14:14:52.818Z,55.90
2022-10-23T14:17:23.295Z,55.90
2022-10-23T14:19:51.891Z,56.00
2022-10-23T14:22:21.289Z,55.90
2022-10-23T14:24:49.999Z,55.90
2022-10-23T14:27:18.504Z,55.90
2022-10-23T14:29:47.084Z,55.80
2022-10-23T14:32:15.667Z,55.80
2022-10-23T14:34:51.802Z,55.70
2022-10-23T14:37:20.603Z,55.60
2022-10-23T14:39:50.297Z,55.70
2022-10-23T14:42:19.493Z,55.60
2022-10-23T14:44:49.978Z,55.60
2022-10-23T14:47:19.717Z,55.60
2022-10-23T14:49:54.594Z,55.60
2022-10-23T14:52:23.361Z,55.50
2022-10-23T14:54:53.708Z,55.60
2022-10-23T14:57:22.715Z,55.50
2022-10-23T14:59:51.526Z,55.50
2022-10-23T15:02:20.113Z,55.50
2022-10-23T15:04:48.698Z,55.60
2022-10-23T15:07:19.067Z,55.60
2022-10-23T15:09:47.641Z,55.50
2022-10-23T15:12:16.205Z,55.60
2022-10-23T15:14:44.809Z,55.60
2022-10-23T15:17:15.619Z,55.60
2022-10-23T15:19:44.539Z,55.60
2022-10-23T15:22:13.149Z,55.50
2022-10-23T15:24:43.099Z,55.70
2022-10-23T15:27:11.617Z,55.60
2022-10-23T15:29:40.107Z,55.60
2022-10-23T15:32:10.610Z,55.70
2022-10-23T15:34:41.947Z,55.70
2022-10-23T15:37:11.852Z,55.70
2022-10-23T15:39:40.449Z,55.70
2022-10-23T15:42:12.476Z,55.80
2022-10-23T15:44:41.903Z,55.70
2022-10-23T15:47:10.396Z,56.40
2022-10-23T15:49:39.886Z,55.80
2022-10-23T15:54:42.323Z,55.80
2022-10-23T15:57:12.553Z,55.80
2022-10-23T15:59:41.187Z,55.80
2022-10-23T16:02:11.238Z,55.90
2022-10-23T16:04:39.927Z,55.90
2022-10-23T16:07:08.995Z,56.00
2022-10-23T16:09:38.007Z,56.00
2022-10-23T16:12:07.375Z,56.00
2022-10-23T16:14:37.278Z,56.10
2022-10-23T16:17:07.582Z,56.10
2022-10-23T16:19:36.512Z,56.10
2022-10-23T16:22:05.005Z,56.20
2022-10-23T16:24:33.824Z,56.20
2022-10-23T16:27:02.611Z,56.20
2022-10-23T16:29:31.253Z,56.20
2022-10-23T16:32:01.111Z,56.20
2022-10-23T16:34:29.765Z,56.20
2022-10-23T16:36:58.263Z,56.30
2022-10-23T16:39:46.490Z,56.30
2022-10-23T16:42:35.272Z,56.30
2022-10-23T16:45:26.709Z,56.30
2022-10-23T16:47:57.184Z,56.30
2022-10-23T16:50:25.676Z,56.40
2022-10-23T16:52:55.799Z,56.30
2022-10-23T16:55:24.722Z,56.30
2022-10-23T16:57:53.259Z,56.30
2022-10-23T17:00:22.734Z,56.30
2022-10-23T17:02:51.312Z,56.40
2022-10-23T17:05:21.213Z,56.30
2022-10-23T17:07:50.342Z,56.40
2022-10-23T17:10:18.920Z,56.40
2022-10-23T17:12:47.455Z,56.40
2022-10-23T17:15:16.092Z,56.50
2022-10-23T17:17:44.901Z,56.50
2022-10-23T17:20:14.069Z,56.50
2022-10-23T17:22:44.072Z,56.50
2022-10-23T17:25:12.672Z,56.60
2022-10-23T17:27:42.647Z,56.60
2022-10-23T17:30:14.034Z,56.50
2022-10-23T17:32:42.937Z,56.60
2022-10-23T17:35:12.238Z,56.60
2022-10-23T17:37:40.769Z,56.50
2022-10-23T17:40:12.092Z,56.60
2022-10-23T17:42:40.758Z,56.60
2022-10-23T17:45:10.829Z,56.60
2022-10-23T17:47:41.149Z,56.70
2022-10-23T17:50:12.349Z,56.70
2022-10-23T17:52:42.458Z,56.70
2022-10-23T17:55:13.105Z,56.70
2022-10-23T17:57:41.949Z,56.70
2022-10-23T18:00:12.482Z,56.80
2022-10-23T18:02:41.053Z,57.40
2022-10-23T18:05:11.310Z,56.80
2022-10-23T18:07:39.920Z,56.90
2022-10-23T18:10:09.622Z,56.90
2022-10-23T18:12:39.622Z,56.90
2022-10-23T18:15:09.988Z,57.00
2022-10-23T18:17:38.584Z,56.90
2022-10-23T18:20:08.991Z,57.10
2022-10-23T18:22:37.827Z,57.10
2022-10-23T18:25:07.281Z,57.10
2022-10-23T18:27:35.926Z,57.10
2022-10-23T18:30:07.185Z,57.10
2022-10-23T18:32:35.793Z,57.20
2022-10-23T18:35:04.788Z,57.20
2022-10-23T18:37:36.542Z,57.10
2022-10-23T18:40:08.876Z,57.10
2022-10-23T18:42:37.471Z,57.20
2022-10-23T18:45:09.294Z,57.20
2022-10-23T18:47:37.942Z,57.20
2022-10-23T18:50:07.797Z,57.20
2022-10-23T18:52:36.405Z,57.30
2022-10-23T18:55:06.321Z,57.30
2022-10-23T18:57:35.648Z,57.40
2022-10-23T19:00:08.587Z,57.40
2022-10-23T19:02:37.755Z,57.40
2022-10-23T19:05:08.268Z,57.50
2022-10-23T19:07:37.012Z,57.60
2022-10-23T19:10:06.848Z,57.60
2022-10-23T19:12:35.397Z,57.60
2022-10-23T19:15:04.151Z,57.70
2022-10-23T19:17:34.198Z,57.70
2022-10-23T19:20:08.109Z,57.80
2022-10-23T19:22:40.314Z,57.80
2022-10-23T19:25:12.863Z,57.80
2022-10-23T19:27:42.141Z,57.80
2022-10-23T19:30:13.773Z,57.80
2022-10-23T19:32:46.047Z,57.90
2022-10-23T19:35:17.057Z,57.90
2022-10-23T19:37:46.002Z,57.90
2022-10-23T19:40:16.866Z,57.80
2022-10-23T19:42:45.569Z,57.90
2022-10-23T19:45:16.103Z,57.90
2022-10-23T19:47:47.930Z,57.90
2022-10-23T19:50:17.444Z,57.90
2022-10-23T19:52:45.986Z,57.90
2022-10-23T19:55:15.450Z,58.00
2022-10-23T19:57:44.282Z,57.90
2022-10-23T20:00:14.987Z,58.00
2022-10-23T20:02:50.143Z,58.00
2022-10-23T20:05:22.151Z,58.00
2022-10-23T20:07:51.456Z,58.00
2022-10-23T20:10:20.228Z,58.00
2022-10-23T20:12:56.605Z,58.00
2022-10-23T20:15:31.120Z,58.10
2022-10-23T20:18:01.135Z,58.10
2022-10-23T20:20:29.716Z,58.10
2022-10-23T20:22:58.558Z,58.10
2022-10-23T20:25:28.648Z,58.20
2022-10-23T20:27:57.184Z,58.10
2022-10-23T20:30:25.819Z,58.10
2022-10-23T20:32:54.995Z,58.10
2022-10-23T20:35:25.316Z,58.10
2022-10-23T20:37:53.975Z,58.10
2022-10-23T20:40:22.616Z,58.10
2022-10-23T20:42:51.223Z,58.10
2022-10-23T20:45:19.987Z,58.10
2022-10-23T20:47:49.028Z,58.10
2022-10-23T20:50:19.329Z,58.20
2022-10-23T20:52:49.589Z,58.20
2022-10-23T20:55:18.442Z,58.10
2022-10-23T20:57:47.356Z,58.20
2022-10-23T21:00:16.463Z,58.20
2022-10-23T21:02:47.203Z,58.10
2022-10-23T21:05:18.788Z,58.10
2022-10-23T21:07:48.721Z,58.20
2022-10-23T21:10:17.397Z,58.80
2022-10-23T21:12:46.329Z,58.20
2022-10-23T21:15:15.191Z,58.20
2022-10-23T21:17:43.827Z,58.10
2022-10-23T21:20:12.616Z,58.10
2022-10-23T21:22:41.329Z,58.10
2022-10-23T21:25:12.310Z,58.10
2022-10-23T21:27:41.704Z,58.10
2022-10-23T21:30:12.210Z,58.10
2022-10-23T21:32:41.128Z,58.20
2022-10-23T21:35:11.453Z,58.10
2022-10-23T21:37:40.081Z,58.10
2022-10-23T21:40:12.260Z,58.10
2022-10-23T21:42:40.813Z,58.10
2022-10-23T21:45:10.880Z,58.10
2022-10-23T21:47:39.892Z,58.00
2022-10-23T21:50:10.173Z,58.00
2022-10-23T21:52:38.821Z,58.00
2022-10-23T21:55:08.488Z,58.00
2022-10-23T21:57:38.424Z,58.00
2022-10-23T22:00:09.390Z,58.00
2022-10-23T22:02:41.383Z,58.00
2022-10-23T22:05:10.510Z,58.00
2022-10-23T22:07:39.097Z,58.00
2022-10-23T22:10:08.791Z,58.00
2022-10-23T22:12:38.810Z,58.00
2022-10-23T22:15:09.152Z,58.00
2022-10-23T22:17:37.796Z,58.00
2022-10-23T22:20:08.068Z,58.00
2022-10-23T22:22:36.680Z,58.00
2022-10-23T22:25:06.388Z,58.00
2022-10-23T22:27:34.948Z,58.00
2022-10-23T22:30:05.844Z,58.00
2022-10-23T22:32:36.005Z,58.00
2022-10-23T22:35:06.197Z,58.00
2022-10-23T22:37:36.160Z,58.00
2022-10-23T22:40:05.259Z,58.00
2022-10-23T22:42:33.791Z,58.00
2022-10-23T22:45:02.390Z,58.00
2022-10-23T22:47:33.358Z,58.10
2022-10-23T22:50:02.186Z,58.10
2022-10-23T22:52:30.746Z,58.20
2022-10-23T22:54:59.240Z,58.30
2022-10-23T22:57:27.810Z,58.30
2022-10-23T22:59:56.310Z,58.30
2022-10-23T23:02:24.883Z,58.30
2022-10-23T23:04:54.892Z,58.40
2022-10-23T23:07:24.023Z,58.30
2022-10-23T23:09:52.788Z,58.40
2022-10-23T23:12:21.576Z,58.40
2022-10-23T23:14:50.515Z,58.40
2022-10-23T23:17:19.093Z,58.50
2022-10-23T23:19:47.637Z,58.50
2022-10-23T23:22:17.646Z,58.50
2022-10-23T23:24:46.409Z,58.60
2022-10-23T23:27:15.019Z,58.50
2022-10-23T23:29:43.512Z,58.50
2022-10-23T23:32:12.163Z,58.30
2022-10-23T23:34:40.712Z,58.30
2022-10-23T23:37:09.264Z,58.20
2022-10-23T23:39:39.138Z,58.20
2022-10-23T23:42:07.780Z,58.10
2022-10-23T23:44:42.016Z,58.00
2022-10-23T23:47:18.964Z,58.00
2022-10-23T23:49:47.495Z,57.90
2022-10-23T23:52:16.023Z,57.90
2022-10-23T23:54:45.932Z,57.90
2022-10-23T23:57:14.686Z,57.80
2022-10-23T23:59:43.697Z,57.80
